createdAt,value
2018-03-11T00:00:24.338Z,-1.10
2018-03-11T00:02:50.799Z,-1.10
2018-03-11T00:05:17.340Z,-1.10
2018-03-11T00:07:43.838Z,-1.10
2018-03-11T00:10:10.314Z,-1.10
2018-03-11T00:12:36.747Z,-1.10
2018-03-11T00:15:03.262Z,-1.10
2018-03-11T00:17:29.794Z,-1.10
2018-03-11T00:19:56.225Z,-1.10
2018-03-11T00:22:22.709Z,-1.10
2018-03-11T00:24:55.201Z,-1.10
2018-03-11T00:27:21.754Z,-1.10
2018-03-11T00:29:48.187Z,-1.10
2018-03-11T00:32:15.418Z,-1.00
2018-03-11T00:34:41.907Z,-1.00
2018-03-11T00:37:08.355Z,-1.00
2018-03-11T00:39:34.789Z,-1.10
2018-03-11T00:42:02.095Z,-1.10
2018-03-11T00:44:29.374Z,-1.00
2018-03-11T00:46:55.850Z,-1.10
2018-03-11T00:49:22.289Z,-1.00
2018-03-11T00:51:48.748Z,-1.00
2018-03-11T00:54:15.983Z,-1.10
2018-03-11T00:56:42.505Z,-1.10
2018-03-11T00:59:09.044Z,-1.10
2018-03-11T01:01:35.643Z,-1.10
2018-03-11T01:04:02.116Z,-1.20
2018-03-11T01:06:28.581Z,-1.20
2018-03-11T01:08:55.107Z,-1.20
2018-03-11T01:11:21.949Z,-1.20
2018-03-11T01:13:48.430Z,-1.20
2018-03-11T01:16:15.667Z,-1.20
2018-03-11T01:18:42.105Z,-1.20
2018-03-11T01:21:08.606Z,-1.10
2018-03-11T01:23:35.875Z,-1.10
2018-03-11T01:26:02.469Z,-1.10
2018-03-11T01:28:28.977Z,-1.10
2018-03-11T01:30:55.505Z,-1.00
2018-03-11T01:33:22.266Z,-0.90
2018-03-11T01:35:48.914Z,-0.90
2018-03-11T01:38:16.125Z,-0.90
2018-03-11T01:40:42.532Z,-0.80
2018-03-11T01:43:08.987Z,-0.90
2018-03-11T01:45:36.401Z,-1.10
2018-03-11T01:48:02.941Z,-1.10
2018-03-11T01:50:29.434Z,-1.10
2018-03-11T01:53:07.927Z,-1.10
2018-03-11T01:55:35.094Z,-1.10
2018-03-11T01:58:01.506Z,-1.10
2018-03-11T02:00:28.033Z,-1.10
2018-03-11T02:02:55.223Z,-1.10
2018-03-11T02:05:21.712Z,-1.10
2018-03-11T02:07:48.210Z,-1.00
2018-03-11T02:10:14.806Z,-1.00
2018-03-11T02:12:41.352Z,-1.00
2018-03-11T02:15:07.904Z,-1.00
2018-03-11T02:17:34.422Z,-1.00
2018-03-11T02:20:00.903Z,-1.00
2018-03-11T02:22:27.400Z,-1.10
2018-03-11T02:24:53.841Z,-1.10
2018-03-11T02:27:20.292Z,-1.10
2018-03-11T02:29:46.741Z,-1.10
2018-03-11T02:32:13.395Z,-1.10
2018-03-11T02:34:39.900Z,-1.10
2018-03-11T02:37:06.356Z,-1.00
2018-03-11T02:39:32.928Z,-1.10
2018-03-11T02:41:59.336Z,-1.10
2018-03-11T02:44:25.879Z,-1.10
2018-03-11T02:46:52.317Z,-1.10
2018-03-11T02:49:20.041Z,-1.10
2018-03-11T02:51:46.542Z,-1.10
2018-03-11T02:54:12.961Z,-1.10
2018-03-11T02:56:40.141Z,-1.10
2018-03-11T02:59:07.027Z,-1.10
2018-03-11T03:01:33.560Z,-1.10
2018-03-11T03:04:00.823Z,-1.10
2018-03-11T03:06:28.044Z,-1.00
2018-03-11T03:08:54.523Z,-1.10
2018-03-11T03:11:21.704Z,-1.00
2018-03-11T03:13:48.250Z,-1.10
2018-03-11T03:16:14.718Z,-1.00
2018-03-11T03:18:41.877Z,-1.10
2018-03-11T03:21:08.616Z,-1.10
2018-03-11T03:23:35.130Z,-1.00
2018-03-11T03:26:01.867Z,-1.00
2018-03-11T03:28:28.371Z,-1.00
2018-03-11T03:30:55.107Z,-1.00
2018-03-11T03:33:21.695Z,-1.00
2018-03-11T03:35:48.134Z,-1.00
2018-03-11T03:38:14.788Z,-1.00
2018-03-11T03:40:41.329Z,-1.00
2018-03-11T03:43:07.814Z,-1.00
2018-03-11T03:45:34.370Z,-1.00
2018-03-11T03:48:00.906Z,-1.00
2018-03-11T03:50:27.345Z,-1.00
2018-03-11T03:52:54.046Z,-1.00
2018-03-11T03:55:20.792Z,-1.00
2018-03-11T03:57:47.242Z,-1.00
2018-03-11T04:00:13.929Z,-0.90
2018-03-11T04:02:40.375Z,-1.00
2018-03-11T04:05:06.863Z,-0.90
2018-03-11T04:07:33.325Z,-0.90
2018-03-11T04:10:00.481Z,-0.90
2018-03-11T04:12:26.929Z,-0.90
2018-03-11T04:14:53.368Z,-0.90
2018-03-11T04:17:19.859Z,-1.00
2018-03-11T04:19:46.374Z,-1.00
2018-03-11T04:22:12.818Z,-1.00
2018-03-11T04:24:39.282Z,-1.00
2018-03-11T04:27:05.704Z,-1.00
2018-03-11T04:29:32.162Z,-1.00
2018-03-11T04:31:59.404Z,-0.90
2018-03-11T04:34:26.609Z,-1.00
2018-03-11T04:36:53.066Z,-1.00
2018-03-11T04:39:20.537Z,-1.00
2018-03-11T04:41:47.073Z,-1.00
2018-03-11T04:44:13.558Z,-0.90
2018-03-11T04:46:40.046Z,-0.90
2018-03-11T04:49:06.473Z,-0.90
2018-03-11T04:51:33.151Z,-0.90
2018-03-11T04:53:59.648Z,-0.90
2018-03-11T04:56:26.110Z,-0.90
2018-03-11T04:58:52.651Z,-0.90
2018-03-11T05:01:19.396Z,-0.90
2018-03-11T05:03:45.976Z,-0.80
2018-03-11T05:06:12.531Z,-0.60
2018-03-11T05:08:39.025Z,-0.80
2018-03-11T05:11:05.495Z,-0.90
2018-03-11T05:13:32.037Z,-0.90
2018-03-11T05:15:58.600Z,-0.90
2018-03-11T05:18:25.001Z,-0.80
2018-03-11T05:20:51.430Z,-0.80
2018-03-11T05:23:18.311Z,-0.70
2018-03-11T05:25:44.896Z,-0.70
2018-03-11T05:28:11.601Z,-0.70
2018-03-11T05:30:38.269Z,-0.80
2018-03-11T05:33:04.889Z,-0.80
2018-03-11T05:35:31.544Z,-0.90
2018-03-11T05:37:58.060Z,-0.90
2018-03-11T05:40:24.687Z,-0.90
2018-03-11T05:42:52.050Z,-0.90
2018-03-11T05:45:18.608Z,-0.90
2018-03-11T05:47:45.272Z,-1.00
2018-03-11T05:50:11.773Z,-1.00
2018-03-11T05:52:38.256Z,-0.90
2018-03-11T05:55:04.714Z,-0.90
2018-03-11T05:57:31.224Z,-0.90
2018-03-11T05:59:57.776Z,-0.70
2018-03-11T06:02:25.037Z,-0.70
2018-03-11T06:04:51.703Z,-0.70
2018-03-11T06:07:18.287Z,-0.70
2018-03-11T06:09:44.936Z,-0.80
2018-03-11T06:12:12.239Z,-0.90
2018-03-11T06:14:38.762Z,-0.90
2018-03-11T06:17:05.276Z,-0.90
2018-03-11T06:19:32.501Z,-0.90
2018-03-11T06:21:59.016Z,-0.90
2018-03-11T06:24:25.441Z,-0.90
2018-03-11T06:26:51.996Z,-0.90
2018-03-11T06:29:18.557Z,-0.80
2018-03-11T06:31:45.229Z,-0.90
2018-03-11T06:34:11.675Z,-0.90
2018-03-11T06:36:38.205Z,-0.90
2018-03-11T06:39:04.681Z,-0.80
2018-03-11T06:41:31.111Z,-0.60
2018-03-11T06:43:57.584Z,-0.60
2018-03-11T06:46:24.908Z,-0.70
2018-03-11T06:48:51.378Z,-0.70
2018-03-11T06:51:17.840Z,-0.70
2018-03-11T06:53:44.338Z,-0.60
2018-03-11T06:56:11.163Z,-0.60
2018-03-11T06:58:37.622Z,-0.60
2018-03-11T07:01:04.080Z,-0.50
2018-03-11T07:03:30.601Z,-0.50
2018-03-11T07:05:57.071Z,-0.60
2018-03-11T07:08:23.571Z,-0.50
2018-03-11T07:10:50.140Z,-0.50
2018-03-11T07:13:16.605Z,-0.60
2018-03-11T07:15:43.107Z,-0.60
2018-03-11T07:18:09.665Z,-0.60
2018-03-11T07:20:36.187Z,-0.50
2018-03-11T07:23:03.420Z,-0.30
2018-03-11T07:25:29.928Z,-0.30
2018-03-11T07:27:56.382Z,-0.30
2018-03-11T07:30:22.897Z,-0.30
2018-03-11T07:32:49.478Z,-0.40
2018-03-11T07:35:15.937Z,-0.40
2018-03-11T07:37:42.356Z,-0.40
2018-03-11T07:40:08.817Z,-0.40
2018-03-11T07:42:35.998Z,-0.30
2018-03-11T07:45:02.438Z,-0.30
2018-03-11T07:47:28.937Z,-0.30
2018-03-11T07:49:56.155Z,-0.30
2018-03-11T07:52:22.813Z,-0.40
2018-03-11T07:54:49.374Z,-0.30
2018-03-11T07:57:16.543Z,-0.10
2018-03-11T07:59:43.042Z,-0.10
2018-03-11T08:02:10.291Z,0.10
2018-03-11T08:04:36.745Z,0.00
2018-03-11T08:07:03.247Z,0.30
2018-03-11T08:09:30.075Z,0.30
2018-03-11T08:11:56.635Z,0.20
2018-03-11T08:14:23.191Z,0.40
2018-03-11T08:16:50.570Z,0.30
2018-03-11T08:19:17.096Z,0.30
2018-03-11T08:21:43.590Z,0.50
2018-03-11T08:24:10.098Z,0.60
2018-03-11T08:26:36.522Z,0.70
2018-03-11T08:29:03.793Z,0.60
2018-03-11T08:31:30.744Z,0.60
2018-03-11T08:33:57.237Z,0.80
2018-03-11T08:36:24.429Z,1.20
2018-03-11T08:38:50.912Z,1.20
2018-03-11T08:41:17.391Z,1.20
2018-03-11T08:43:44.654Z,1.40
2018-03-11T08:46:11.125Z,1.30
2018-03-11T08:48:37.608Z,1.40
2018-03-11T08:51:04.781Z,1.90
2018-03-11T08:53:31.941Z,1.90
2018-03-11T08:55:58.434Z,1.90
2018-03-11T08:58:24.969Z,1.80
2018-03-11T09:00:51.536Z,1.70
2018-03-11T09:03:24.834Z,1.70
2018-03-11T09:05:51.965Z,1.90
2018-03-11T09:08:18.440Z,2.10
2018-03-11T09:10:44.968Z,2.20
2018-03-11T09:13:11.493Z,2.10
2018-03-11T09:15:38.003Z,2.00
2018-03-11T09:18:04.456Z,1.60
2018-03-11T09:20:32.406Z,1.50
2018-03-11T09:22:58.829Z,1.40
2018-03-11T09:25:25.351Z,1.50
2018-03-11T09:27:51.824Z,1.50
2018-03-11T09:30:18.370Z,1.40
2018-03-11T09:32:45.697Z,1.40
2018-03-11T09:35:12.232Z,1.40
2018-03-11T09:37:38.812Z,1.20
2018-03-11T09:40:05.242Z,1.30
2018-03-11T09:42:31.741Z,1.10
2018-03-11T09:44:58.185Z,1.10
2018-03-11T09:47:24.708Z,1.10
2018-03-11T09:49:51.197Z,1.10
2018-03-11T09:52:17.650Z,1.10
2018-03-11T09:54:44.126Z,1.10
2018-03-11T09:57:10.688Z,1.20
2018-03-11T09:59:37.583Z,1.10
2018-03-11T10:02:04.058Z,1.30
2018-03-11T10:04:30.579Z,1.40
2018-03-11T10:06:57.097Z,1.30
2018-03-11T10:09:23.625Z,1.30
2018-03-11T10:11:50.108Z,1.40
2018-03-11T10:14:16.615Z,1.40
2018-03-11T10:16:43.121Z,1.30
2018-03-11T10:19:10.434Z,1.40
2018-03-11T10:21:37.713Z,1.70
2018-03-11T10:24:04.141Z,1.70
2018-03-11T10:26:31.540Z,1.50
2018-03-11T10:28:57.986Z,1.40
2018-03-11T10:31:24.438Z,1.50
2018-03-11T10:33:51.682Z,1.70
2018-03-11T10:36:18.178Z,1.60
2018-03-11T10:38:45.632Z,1.50
2018-03-11T10:41:12.811Z,1.60
2018-03-11T10:43:39.269Z,1.60
2018-03-11T10:46:05.773Z,1.80
2018-03-11T10:48:32.183Z,1.80
2018-03-11T10:50:59.570Z,1.70
2018-03-11T10:53:26.765Z,1.80
2018-03-11T10:55:53.208Z,1.80
2018-03-11T10:58:19.736Z,1.70
2018-03-11T11:00:52.229Z,1.80
2018-03-11T11:03:18.872Z,1.90
2018-03-11T11:05:45.540Z,1.90
2018-03-11T11:08:12.046Z,1.90
2018-03-11T11:10:38.624Z,1.90
2018-03-11T11:13:05.505Z,2.00
2018-03-11T11:15:32.100Z,2.10
2018-03-11T11:17:58.544Z,1.90
2018-03-11T11:20:25.046Z,1.90
2018-03-11T11:22:53.100Z,1.90
2018-03-11T11:25:20.538Z,1.90
2018-03-11T11:27:47.018Z,1.80
2018-03-11T11:30:14.311Z,1.80
2018-03-11T11:32:42.581Z,2.00
2018-03-11T11:35:09.330Z,2.00
2018-03-11T11:37:36.462Z,2.10
2018-03-11T11:40:03.235Z,2.10
2018-03-11T11:42:29.764Z,2.10
2018-03-11T11:44:57.078Z,2.10
2018-03-11T11:47:23.646Z,2.10
2018-03-11T11:49:50.079Z,2.10
2018-03-11T11:52:16.705Z,2.00
2018-03-11T11:54:44.041Z,2.20
2018-03-11T11:57:11.538Z,2.10
2018-03-11T11:59:38.126Z,2.20
2018-03-11T12:02:04.678Z,2.20
2018-03-11T12:04:31.185Z,2.30
2018-03-11T12:06:58.413Z,2.20
2018-03-11T12:09:25.821Z,2.30
2018-03-11T12:11:52.380Z,2.30
2018-03-11T12:14:19.823Z,2.20
2018-03-11T12:16:46.620Z,2.20
2018-03-11T12:19:13.031Z,2.20
2018-03-11T12:21:40.552Z,2.30
2018-03-11T12:24:07.065Z,2.10
2018-03-11T12:26:33.762Z,2.00
2018-03-11T12:29:00.285Z,2.10
2018-03-11T12:31:26.868Z,2.10
2018-03-11T12:33:53.555Z,2.20
2018-03-11T12:36:20.007Z,2.30
2018-03-11T12:38:46.477Z,2.30
2018-03-11T12:41:13.776Z,2.20
2018-03-11T12:43:41.818Z,2.20
2018-03-11T12:46:08.619Z,2.20
2018-03-11T12:48:35.164Z,2.00
2018-03-11T12:51:01.648Z,2.00
2018-03-11T12:53:28.158Z,2.00
2018-03-11T12:55:54.627Z,2.10
2018-03-11T12:58:21.098Z,2.10
2018-03-11T13:00:47.604Z,2.10
2018-03-11T13:03:14.132Z,2.00
2018-03-11T13:05:41.404Z,2.20
2018-03-11T13:08:08.085Z,2.40
2018-03-11T13:10:34.635Z,2.30
2018-03-11T13:13:01.698Z,2.40
2018-03-11T13:15:28.256Z,2.40
2018-03-11T13:17:56.425Z,2.10
2018-03-11T13:20:35.145Z,2.10
2018-03-11T13:23:01.613Z,2.00
2018-03-11T13:25:29.008Z,1.80
2018-03-11T13:28:07.707Z,1.80
2018-03-11T13:30:34.137Z,1.90
2018-03-11T13:33:12.837Z,2.00
2018-03-11T13:35:39.455Z,2.10
2018-03-11T13:38:19.030Z,2.00
2018-03-11T13:40:45.844Z,1.90
2018-03-11T13:43:12.422Z,1.90
2018-03-11T13:48:41.227Z,1.90
2018-03-11T13:51:08.512Z,2.10
2018-03-11T13:53:48.199Z,2.20
2018-03-11T13:56:14.735Z,2.10
2018-03-11T13:58:44.206Z,2.10
2018-03-11T14:01:10.956Z,2.10
2018-03-11T14:03:37.381Z,2.00
2018-03-11T14:06:03.904Z,1.90
2018-03-11T14:08:30.458Z,1.90
2018-03-11T14:10:57.824Z,1.90
2018-03-11T14:13:24.466Z,1.90
2018-03-11T14:15:50.991Z,1.90
2018-03-11T14:18:20.042Z,1.90
2018-03-11T14:20:46.616Z,1.90
2018-03-11T14:23:13.113Z,1.90
2018-03-11T14:25:39.827Z,1.90
2018-03-11T14:28:06.347Z,1.80
2018-03-11T14:30:32.862Z,1.90
2018-03-11T14:33:00.249Z,1.70
2018-03-11T14:35:26.701Z,1.70
2018-03-11T14:37:53.249Z,1.60
2018-03-11T14:40:19.778Z,1.60
2018-03-11T14:42:47.010Z,1.60
2018-03-11T14:45:13.647Z,1.60
2018-03-11T14:47:40.156Z,1.70
2018-03-11T14:50:07.373Z,1.80
2018-03-11T14:52:33.857Z,1.80
2018-03-11T14:55:00.399Z,1.90
2018-03-11T14:57:26.942Z,1.80
2018-03-11T14:59:54.233Z,1.70
2018-03-11T15:02:27.613Z,1.70
2018-03-11T15:04:54.105Z,1.70
2018-03-11T15:07:20.694Z,1.60
2018-03-11T15:09:47.661Z,1.60
2018-03-11T15:12:14.300Z,1.60
2018-03-11T15:14:40.818Z,1.60
2018-03-11T15:17:08.227Z,1.60
2018-03-11T15:19:34.874Z,1.60
2018-03-11T15:22:01.522Z,1.50
2018-03-11T15:24:28.472Z,1.50
2018-03-11T15:26:55.006Z,1.50
2018-03-11T15:29:22.093Z,1.50
2018-03-11T15:31:48.692Z,1.50
2018-03-11T15:34:15.262Z,1.60
2018-03-11T15:36:42.451Z,1.50
2018-03-11T15:39:09.140Z,1.50
2018-03-11T15:41:36.468Z,1.40
2018-03-11T15:44:03.182Z,1.40
2018-03-11T15:46:29.632Z,1.40
2018-03-11T15:48:56.092Z,1.20
2018-03-11T15:51:22.634Z,1.20
2018-03-11T15:53:49.322Z,1.20
2018-03-11T15:56:15.871Z,1.20
2018-03-11T15:58:42.512Z,1.30
2018-03-11T16:01:09.294Z,1.20
2018-03-11T16:03:36.624Z,1.10
2018-03-11T16:06:03.165Z,1.10
2018-03-11T16:08:29.646Z,1.00
2018-03-11T16:10:56.934Z,0.90
2018-03-11T16:13:23.359Z,1.00
2018-03-11T16:15:49.898Z,1.00
2018-03-11T16:18:17.136Z,1.00
2018-03-11T16:20:43.577Z,1.00
2018-03-11T16:23:10.140Z,1.00
2018-03-11T16:25:36.938Z,1.00
2018-03-11T16:28:03.439Z,0.90
2018-03-11T16:30:30.799Z,0.90
2018-03-11T16:32:57.323Z,0.90
2018-03-11T16:35:23.880Z,0.90
2018-03-11T16:37:51.129Z,0.90
2018-03-11T16:40:18.330Z,1.00
2018-03-11T16:42:45.041Z,1.00
2018-03-11T16:45:11.525Z,0.80
2018-03-11T16:47:38.037Z,0.90
2018-03-11T16:50:04.550Z,0.90
2018-03-11T16:52:31.079Z,0.90
2018-03-11T16:54:57.515Z,1.00
2018-03-11T16:57:24.025Z,0.90
2018-03-11T16:59:51.333Z,1.00
2018-03-11T17:02:17.860Z,1.00
2018-03-11T17:04:44.332Z,0.90
2018-03-11T17:07:10.829Z,0.80
2018-03-11T17:09:37.258Z,0.80
2018-03-11T17:12:03.716Z,0.90
2018-03-11T17:14:30.258Z,0.80
2018-03-11T17:16:56.728Z,0.80
2018-03-11T17:19:23.278Z,0.80
2018-03-11T17:21:49.734Z,0.80
2018-03-11T17:24:16.209Z,0.80
2018-03-11T17:26:42.665Z,0.80
2018-03-11T17:29:09.919Z,0.80
2018-03-11T17:31:36.558Z,0.70
2018-03-11T17:34:03.095Z,0.70
2018-03-11T17:36:29.574Z,0.80
2018-03-11T17:38:56.030Z,0.80
2018-03-11T17:41:22.525Z,0.80
2018-03-11T17:43:49.158Z,0.80
2018-03-11T17:46:15.680Z,0.70
2018-03-11T17:48:42.935Z,0.70
2018-03-11T17:51:10.153Z,0.80
2018-03-11T17:53:36.844Z,0.70
2018-03-11T17:56:03.269Z,0.70
2018-03-11T17:58:30.197Z,0.70
2018-03-11T18:00:56.912Z,0.70
2018-03-11T18:03:23.452Z,0.70
2018-03-11T18:05:50.716Z,0.80
2018-03-11T18:08:17.359Z,0.80
2018-03-11T18:10:43.892Z,0.80
2018-03-11T18:13:10.402Z,0.80
2018-03-11T18:15:36.999Z,0.80
2018-03-11T18:18:03.469Z,0.80
2018-03-11T18:20:29.910Z,0.90
2018-03-11T18:22:56.423Z,0.80
2018-03-11T18:25:22.848Z,0.80
2018-03-11T18:27:49.428Z,0.70
2018-03-11T18:30:15.963Z,0.70
2018-03-11T18:32:43.187Z,0.80
2018-03-11T18:35:09.726Z,0.80
2018-03-11T18:37:36.893Z,0.90
2018-03-11T18:40:03.413Z,0.90
2018-03-11T18:42:30.747Z,0.80
2018-03-11T18:44:57.284Z,0.80
2018-03-11T18:47:23.793Z,0.80
2018-03-11T18:49:50.338Z,0.90
2018-03-11T18:52:16.914Z,0.90
2018-03-11T18:54:43.472Z,0.90
2018-03-11T18:57:10.154Z,0.90
2018-03-11T18:59:36.641Z,0.80
2018-03-11T19:02:03.119Z,0.80
2018-03-11T19:04:29.595Z,0.80
2018-03-11T19:06:56.881Z,0.90
2018-03-11T19:09:24.647Z,0.90
2018-03-11T19:11:51.423Z,0.90
2018-03-11T19:14:17.848Z,0.80
2018-03-11T19:16:45.091Z,0.90
2018-03-11T19:19:11.644Z,1.00
2018-03-11T19:21:38.258Z,1.00
2018-03-11T19:24:05.510Z,1.00
2018-03-11T19:26:32.140Z,1.00
2018-03-11T19:28:58.628Z,1.00
2018-03-11T19:31:25.134Z,1.00
2018-03-11T19:33:51.689Z,0.90
2018-03-11T19:36:18.120Z,0.90
2018-03-11T19:38:44.757Z,0.90
2018-03-11T19:41:11.345Z,1.00
2018-03-11T19:43:37.769Z,1.00
2018-03-11T19:46:04.348Z,1.00
2018-03-11T19:48:31.614Z,1.00
2018-03-11T19:50:58.107Z,1.00
2018-03-11T19:53:24.692Z,0.90
2018-03-11T19:55:51.181Z,1.00
2018-03-11T19:58:17.766Z,0.90
2018-03-11T20:00:44.502Z,1.00
2018-03-11T20:03:10.997Z,1.00
2018-03-11T20:05:38.474Z,1.00
2018-03-11T20:08:05.884Z,1.10
2018-03-11T20:10:32.348Z,1.00
2018-03-11T20:12:59.164Z,1.10
2018-03-11T20:15:25.760Z,1.10
2018-03-11T20:17:52.394Z,1.10
2018-03-11T20:20:19.093Z,1.10
2018-03-11T20:22:45.794Z,1.10
2018-03-11T20:25:12.389Z,1.00
2018-03-11T20:27:38.967Z,1.00
2018-03-11T20:30:05.756Z,1.10
2018-03-11T20:32:32.551Z,1.10
2018-03-11T20:34:59.332Z,1.00
2018-03-11T20:37:26.740Z,1.20
2018-03-11T20:39:53.277Z,1.20
2018-03-11T20:42:19.831Z,1.20
2018-03-11T20:44:46.440Z,1.20
2018-03-11T20:47:13.050Z,1.30
2018-03-11T20:49:39.499Z,1.30
2018-03-11T20:52:06.157Z,1.30
2018-03-11T20:54:32.663Z,1.20
2018-03-11T20:56:59.125Z,1.30
2018-03-11T20:59:25.672Z,1.30
2018-03-11T21:01:52.213Z,1.30
2018-03-11T21:04:18.754Z,1.30
2018-03-11T21:06:45.469Z,1.30
2018-03-11T21:09:11.955Z,1.30
2018-03-11T21:11:38.490Z,1.30
2018-03-11T21:14:04.970Z,1.30
2018-03-11T21:16:31.726Z,1.30
2018-03-11T21:18:58.261Z,1.30
2018-03-11T21:21:24.789Z,1.30
2018-03-11T21:23:51.235Z,1.40
2018-03-11T21:26:17.765Z,1.50
2018-03-11T21:28:44.264Z,1.40
2018-03-11T21:31:10.702Z,1.40
2018-03-11T21:33:37.886Z,1.50
2018-03-11T21:36:04.305Z,1.40
2018-03-11T21:38:30.925Z,1.50
2018-03-11T21:40:57.406Z,1.50
2018-03-11T21:43:23.835Z,1.50
2018-03-11T21:45:50.354Z,1.60
2018-03-11T21:48:16.782Z,1.60
2018-03-11T21:50:43.344Z,1.70
2018-03-11T21:53:10.549Z,1.60
2018-03-11T21:55:36.923Z,1.60
2018-03-11T21:58:03.336Z,1.60
2018-03-11T22:00:29.959Z,1.60
2018-03-11T22:02:56.417Z,1.60
2018-03-11T22:05:22.908Z,1.60
2018-03-11T22:07:49.399Z,1.70
2018-03-11T22:10:15.815Z,1.60
2018-03-11T22:12:42.298Z,1.60
2018-03-11T22:15:08.786Z,1.70
2018-03-11T22:17:35.226Z,1.60
2018-03-11T22:20:01.692Z,1.70
2018-03-11T22:22:28.175Z,1.70
2018-03-11T22:24:55.280Z,1.60
2018-03-11T22:27:21.760Z,1.60
2018-03-11T22:29:48.253Z,1.60
2018-03-11T22:32:14.684Z,1.80
2018-03-11T22:34:41.122Z,1.70
2018-03-11T22:37:07.541Z,1.60
2018-03-11T22:39:34.023Z,1.70
2018-03-11T22:42:01.196Z,1.60
2018-03-11T22:44:27.607Z,1.60
2018-03-11T22:46:54.889Z,1.60
2018-03-11T22:49:21.335Z,1.60
2018-03-11T22:51:47.805Z,1.70
2018-03-11T22:54:14.269Z,1.70
2018-03-11T22:56:41.412Z,1.60
2018-03-11T22:59:08.816Z,1.70
2018-03-11T23:01:35.277Z,1.60
2018-03-11T23:04:01.833Z,1.70
2018-03-11T23:06:28.345Z,1.70
2018-03-11T23:08:54.809Z,1.70
2018-03-11T23:11:22.064Z,1.80
2018-03-11T23:13:48.557Z,1.70
2018-03-11T23:16:15.041Z,1.90
2018-03-11T23:21:44.895Z,1.80
2018-03-11T23:24:11.360Z,1.80
2018-03-11T23:26:37.960Z,1.80
2018-03-11T23:29:04.531Z,1.80
2018-03-11T23:31:31.722Z,1.90
2018-03-11T23:33:58.982Z,1.90
2018-03-11T23:36:26.224Z,1.90
2018-03-11T23:38:52.731Z,1.90
2018-03-11T23:41:19.281Z,2.00
2018-03-11T23:43:45.786Z,2.00
2018-03-11T23:46:12.280Z,1.80
2018-03-11T23:48:38.844Z,1.80
2018-03-11T23:51:05.323Z,1.90
2018-03-11T23:53:31.815Z,2.00
2018-03-11T23:55:58.264Z,1.90
2018-03-11T23:58:24.636Z,1.90
